Time;durP1;ratioP1;P1;durP2;ratioP2;P2;SDS_P1;SDS_P2;PMS_P1;PMS_P2;Temp;Humidity;BMP_temperature;BMP_pressure;BME280_temperature;BME280_humidity;BME280_pressure;Samples;Min_cycle;Max_cycle;Signal;HPM_P1;HPM_P2
2021/07/22 04:00:20;;;;;;;13.50;11.30;;;15.80;99.90;;;;;;5910449;23;21652;-68
2021/07/22 04:02:47;;;;;;;14.27;11.07;;;15.80;99.90;;;;;;4936443;29;20893;-69
2021/07/22 04:05:13;;;;;;;17.90;11.77;;;15.80;99.90;;;;;;4931182;29;20566;-69
2021/07/22 04:07:40;;;;;;;12.20;10.90;;;15.90;99.90;;;;;;4931576;29;20480;-66
2021/07/22 04:10:08;;;;;;;16.40;11.70;;;15.90;99.90;;;;;;4940045;29;20485;-67
2021/07/22 04:12:35;;;;;;;14.07;11.67;;;15.90;99.90;;;;;;4937903;29;20548;-67
2021/07/22 04:15:01;;;;;;;13.67;11.37;;;15.90;99.90;;;;;;4937336;29;20488;-70
2021/07/22 04:17:29;;;;;;;12.57;10.37;;;15.90;99.90;;;;;;4935943;29;20469;-71
2021/07/22 04:19:56;;;;;;;11.53;10.37;;;16.00;99.90;;;;;;4935081;29;21007;-71
2021/07/22 04:22:23;;;;;;;15.77;10.83;;;16.00;99.90;;;;;;4935715;29;20489;-71
2021/07/22 04:24:49;;;;;;;12.33;10.00;;;16.10;99.90;;;;;;4935465;29;20513;-71
2021/07/22 04:27:16;;;;;;;16.47;11.50;;;16.10;99.90;;;;;;4935575;29;20484;-71
2021/07/22 04:29:42;;;;;;;18.40;11.70;;;16.20;99.90;;;;;;4935283;29;20462;-71
2021/07/22 04:32:09;;;;;;;14.03;10.63;;;16.30;99.90;;;;;;4934907;29;20493;-67
2021/07/22 04:34:37;;;;;;;11.57;10.37;;;16.40;99.90;;;;;;4935235;29;20548;-67
2021/07/22 04:37:06;;;;;;;12.20;10.67;;;16.60;99.90;;;;;;4936034;29;20466;-67
2021/07/22 04:39:32;;;;;;;11.93;9.50;;;17.00;99.90;;;;;;4934977;29;20473;-68
2021/07/22 04:41:59;;;;;;;10.80;9.70;;;17.40;99.90;;;;;;4935489;29;21026;-68
2021/07/22 04:44:26;;;;;;;13.17;10.30;;;17.90;99.90;;;;;;4935445;29;20473;-67
2021/07/22 04:46:54;;;;;;;12.20;10.90;;;18.30;99.90;;;;;;4934876;29;20812;-67
2021/07/22 04:49:21;;;;;;;10.47;9.07;;;18.30;99.90;;;;;;4934798;29;20915;-67
2021/07/22 04:51:49;;;;;;;9.70;8.67;;;18.30;99.90;;;;;;4934872;29;20525;-67
2021/07/22 04:54:16;;;;;;;9.63;8.60;;;18.30;99.90;;;;;;4933540;29;20478;-69
2021/07/22 04:56:42;;;;;;;9.13;8.20;;;18.40;99.90;;;;;;4931972;29;20528;-69
2021/07/22 04:59:09;;;;;;;9.30;8.50;;;18.60;99.90;;;;;;4934440;29;20465;-68
2021/07/22 05:01:36;;;;;;;7.93;7.23;;;18.50;99.90;;;;;;4934027;29;20973;-69
2021/07/22 05:04:02;;;;;;;11.43;8.43;;;18.40;99.90;;;;;;4934620;29;20536;-70
2021/07/22 05:06:29;;;;;;;7.97;7.23;;;18.40;99.90;;;;;;4935334;29;20461;-70
2021/07/22 05:08:57;;;;;;;6.63;6.13;;;18.70;99.90;;;;;;4935105;29;20506;-70
2021/07/22 05:11:24;;;;;;;7.97;7.10;;;19.10;99.90;;;;;;4934623;29;21012;-70
2021/07/22 05:13:50;;;;;;;9.00;6.57;;;19.20;99.90;;;;;;4934799;29;20478;-70
2021/07/22 05:16:17;;;;;;;6.67;6.17;;;19.50;99.90;;;;;;4934847;29;20535;-67
2021/07/22 05:18:43;;;;;;;6.37;5.90;;;19.70;99.90;;;;;;4934205;29;20476;-70
2021/07/22 05:21:10;;;;;;;7.13;5.80;;;19.70;99.90;;;;;;4934679;29;20525;-70
2021/07/22 05:23:37;;;;;;;7.60;7.00;;;19.60;99.90;;;;;;4934544;29;20618;-70
2021/07/22 05:26:07;;;;;;;6.47;6.00;;;19.70;99.90;;;;;;4932708;29;20473;-68
2021/07/22 05:28:34;;;;;;;6.60;6.10;;;19.80;99.90;;;;;;4935006;29;20465;-70
2021/07/22 05:31:04;;;;;;;6.93;6.43;;;20.10;99.90;;;;;;4934328;29;20493;-69
2021/07/22 05:33:30;;;;;;;6.90;6.30;;;20.10;99.90;;;;;;4934353;29;20516;-68
2021/07/22 05:35:57;;;;;;;6.73;6.23;;;20.10;99.90;;;;;;4934756;29;20616;-69
2021/07/22 05:38:23;;;;;;;6.67;6.27;;;20.10;99.90;;;;;;4934655;29;20461;-69
2021/07/22 05:40:50;;;;;;;8.17;7.20;;;20.20;99.90;;;;;;4934743;29;20890;-68
2021/07/22 05:43:18;;;;;;;6.53;6.00;;;20.10;99.90;;;;;;4934758;29;20493;-69
2021/07/22 05:45:45;;;;;;;8.20;7.40;;;20.00;99.90;;;;;;4934318;29;20872;-70
2021/07/22 05:48:11;;;;;;;7.50;6.90;;;19.90;99.90;;;;;;4934063;29;20540;-71
2021/07/22 05:50:38;;;;;;;7.93;7.07;;;19.70;99.90;;;;;;4932928;29;20533;-72
2021/07/22 05:53:04;;;;;;;7.63;6.90;;;19.50;99.90;;;;;;4933014;29;20958;-72
2021/07/22 05:55:31;;;;;;;7.47;6.83;;;19.50;99.90;;;;;;4934524;29;20478;-71
2021/07/22 05:57:58;;;;;;;8.60;7.80;;;19.30;99.90;;;;;;4934227;29;20473;-71
2021/07/22 06:00:26;;;;;;;8.03;7.33;;;19.20;99.90;;;;;;4933712;29;20567;-71
2021/07/22 06:02:52;;;;;;;6.80;6.40;;;19.20;99.90;;;;;;4933611;29;20476;-69
2021/07/22 06:05:19;;;;;;;7.30;6.70;;;19.20;99.90;;;;;;4928739;29;20529;-69
2021/07/22 06:07:46;;;;;;;7.03;6.47;;;19.30;99.90;;;;;;4931553;29;20473;-69
2021/07/22 06:10:13;;;;;;;8.27;7.47;;;19.40;99.90;;;;;;4936814;29;20651;-68
2021/07/22 06:12:40;;;;;;;8.50;7.60;;;19.40;99.90;;;;;;4937041;29;20532;-67
2021/07/22 06:15:08;;;;;;;9.10;6.60;;;19.70;99.90;;;;;;4936825;29;20524;-67
2021/07/22 06:17:37;;;;;;;6.63;6.10;;;19.80;99.90;;;;;;4937254;29;20548;-67
2021/07/22 06:20:04;;;;;;;6.50;5.80;;;19.70;99.90;;;;;;4936619;29;20926;-67
2021/07/22 06:22:31;;;;;;;7.20;6.63;;;19.60;99.90;;;;;;4936183;29;20473;-72
2021/07/22 06:24:58;;;;;;;5.93;5.53;;;19.50;99.90;;;;;;4937447;29;20469;-71
2021/07/22 06:27:24;;;;;;;6.57;6.20;;;19.50;99.90;;;;;;4937268;29;20967;-71
2021/07/22 06:29:51;;;;;;;5.93;5.43;;;19.50;99.90;;;;;;4937074;29;20476;-70
2021/07/22 06:32:18;;;;;;;5.80;5.40;;;19.60;99.90;;;;;;4936630;29;20488;-72
2021/07/22 06:34:46;;;;;;;5.23;4.77;;;19.50;99.90;;;;;;4937400;29;20466;-72
2021/07/22 06:37:13;;;;;;;5.80;5.30;;;19.50;99.90;;;;;;4937575;29;20476;-72
2021/07/22 06:39:40;;;;;;;5.93;5.43;;;19.40;99.90;;;;;;4937202;29;20469;-73
2021/07/22 06:42:07;;;;;;;5.40;4.97;;;19.50;99.90;;;;;;4936292;29;20497;-73
2021/07/22 06:44:33;;;;;;;4.87;4.67;;;20.00;99.90;;;;;;4924037;29;20482;-73
2021/07/22 06:47:00;;;;;;;4.83;4.53;;;20.70;99.90;;;;;;4919183;29;20479;-72
2021/07/22 06:49:27;;;;;;;4.33;4.13;;;21.30;99.90;;;;;;4949608;29;20470;-72
2021/07/22 06:51:55;;;;;;;4.67;4.37;;;21.70;99.90;;;;;;4937109;29;20523;-71
2021/07/22 06:54:22;;;;;;;5.00;4.80;;;21.90;99.90;;;;;;4933332;29;20978;-72
2021/07/22 06:56:49;;;;;;;4.90;4.57;;;21.70;99.90;;;;;;4932701;29;20966;-74
2021/07/22 06:59:16;;;;;;;4.40;4.20;;;21.70;99.90;;;;;;4936901;29;20461;-73
2021/07/22 07:01:43;;;;;;;5.40;5.00;;;21.60;99.90;;;;;;4935665;29;20584;-71
2021/07/22 07:04:09;;;;;;;5.00;4.70;;;21.60;99.90;;;;;;4935202;29;20469;-72
2021/07/22 07:06:37;;;;;;;5.20;4.90;;;21.60;99.90;;;;;;4936739;29;20537;-72
2021/07/22 07:09:06;;;;;;;6.27;5.80;;;21.20;99.90;;;;;;4936669;29;20532;-72
2021/07/22 07:11:32;;;;;;;6.00;5.40;;;21.20;99.90;;;;;;4936818;29;20508;-73
2021/07/22 07:13:59;;;;;;;5.77;5.37;;;21.40;99.90;;;;;;4936231;29;20831;-72
2021/07/22 07:16:26;;;;;;;4.93;4.80;;;21.60;99.90;;;;;;4936394;29;20529;-73
2021/07/22 07:18:52;;;;;;;5.10;4.80;;;21.80;99.90;;;;;;4936357;29;20470;-73
2021/07/22 07:21:19;;;;;;;5.93;5.30;;;21.90;99.90;;;;;;4935420;29;20498;-73
2021/07/22 07:23:47;;;;;;;5.77;5.37;;;22.00;99.90;;;;;;4936138;29;20509;-69
2021/07/22 07:26:15;;;;;;;5.50;5.10;;;22.00;99.90;;;;;;4936744;29;20519;-68
2021/07/22 07:28:42;;;;;;;5.93;5.53;;;21.90;99.90;;;;;;4936290;29;20529;-68
2021/07/22 07:31:08;;;;;;;5.70;5.23;;;21.90;99.90;;;;;;4936435;29;20485;-68
2021/07/22 07:33:35;;;;;;;5.67;5.27;;;22.00;99.90;;;;;;4936272;29;20577;-68
2021/07/22 07:36:02;;;;;;;5.40;5.00;;;22.60;99.90;;;;;;4936383;29;20516;-68
2021/07/22 07:38:28;;;;;;;4.90;4.70;;;23.60;99.90;;;;;;4936397;29;20466;-68
2021/07/22 07:40:55;;;;;;;5.07;4.77;;;24.10;99.90;;;;;;4936027;29;20504;-68
2021/07/22 07:43:23;;;;;;;5.30;4.90;;;24.20;99.90;;;;;;4935904;29;20604;-70
2021/07/22 07:45:49;;;;;;;5.37;4.97;;;23.90;99.90;;;;;;4935920;29;20593;-69
2021/07/22 07:48:16;;;;;;;5.20;4.90;;;23.60;99.90;;;;;;4935810;29;20519;-68
2021/07/22 07:50:43;;;;;;;5.27;4.83;;;23.30;99.90;;;;;;4936008;29;20541;-68
2021/07/22 07:53:13;;;;;;;5.93;5.63;;;22.90;99.90;;;;;;4935917;29;20816;-68
2021/07/22 07:55:40;;;;;;;4.93;4.63;;;22.60;99.90;;;;;;4935880;29;20492;-72
2021/07/22 07:58:07;;;;;;;6.30;5.27;;;22.40;99.90;;;;;;4935773;29;20466;-73
2021/07/22 08:00:35;;;;;;;5.97;5.47;;;22.30;99.90;;;;;;4935355;29;20490;-70
2021/07/22 08:03:02;;;;;;;5.60;5.10;;;22.30;99.90;;;;;;4935222;29;20472;-71
2021/07/22 08:05:30;;;;;;;5.47;5.07;;;22.30;99.90;;;;;;4935575;29;20465;-70
2021/07/22 08:07:56;;;;;;;5.80;5.40;;;22.70;99.90;;;;;;4935703;29;20469;-71
2021/07/22 08:10:24;;;;;;;5.73;5.30;;;22.50;99.90;;;;;;4935705;29;20469;-73
2021/07/22 08:12:50;;;;;;;5.77;5.47;;;22.40;99.90;;;;;;4936037;29;20529;-72
2021/07/22 08:15:17;;;;;;;6.13;5.37;;;22.30;99.90;;;;;;4922564;29;20467;-73
2021/07/22 08:17:45;;;;;;;5.00;4.70;;;22.20;99.90;;;;;;4916848;29;20531;-71
2021/07/22 08:20:12;;;;;;;5.97;5.57;;;22.10;99.90;;;;;;4915964;29;20470;-71
2021/07/22 08:22:40;;;;;;;6.27;5.67;;;22.00;99.90;;;;;;4916047;29;20562;-71
2021/07/22 08:25:10;;;;;;;6.20;5.70;;;21.90;99.90;;;;;;4916233;29;20569;-70
2021/07/22 08:27:36;;;;;;;6.23;5.83;;;21.80;99.90;;;;;;4916693;29;20499;-70
2021/07/22 08:30:03;;;;;;;5.67;5.30;;;21.80;99.90;;;;;;4915866;29;20470;-70
2021/07/22 08:32:30;;;;;;;6.20;5.70;;;21.90;99.90;;;;;;4915814;29;20490;-70
2021/07/22 08:34:58;;;;;;;5.90;5.50;;;22.00;99.90;;;;;;4915750;29;20485;-70
2021/07/22 08:37:24;;;;;;;5.93;5.60;;;22.20;99.90;;;;;;4915994;29;20492;-70
2021/07/22 08:39:54;;;;;;;6.03;5.73;;;22.20;99.90;;;;;;4916402;29;20471;-70
2021/07/22 08:42:25;;;;;;;5.50;5.10;;;22.30;99.90;;;;;;4915832;29;21066;-70
2021/07/22 08:44:52;;;;;;;5.97;5.57;;;22.30;99.90;;;;;;4916100;29;20880;-70
2021/07/22 08:47:19;;;;;;;6.90;6.30;;;22.10;99.90;;;;;;4916023;29;20471;-70
2021/07/22 08:49:46;;;;;;;6.80;6.13;;;22.10;99.90;;;;;;4915561;29;20498;-73
2021/07/22 08:52:14;;;;;;;6.97;6.37;;;22.30;99.90;;;;;;4918790;29;20542;-73
2021/07/22 08:54:41;;;;;;;7.13;6.63;;;22.50;99.90;;;;;;4918963;29;20473;-73
2021/07/22 08:57:10;;;;;;;6.10;5.70;;;22.30;99.90;;;;;;4919010;29;20477;-71
2021/07/22 08:59:37;;;;;;;5.53;5.23;;;22.10;99.90;;;;;;4916017;29;20478;-71
2021/07/22 09:02:05;;;;;;;7.03;6.40;;;22.10;99.90;;;;;;4919719;29;20499;-71
2021/07/22 09:04:49;;;;;;;6.90;6.33;;;22.20;99.90;;;;;;4934478;29;20465;-71
2021/07/22 09:07:19;;;;;;;7.13;6.67;;;22.20;99.90;;;;;;4935357;29;20469;-70
2021/07/22 09:10:12;;;;;;;6.23;5.73;;;22.30;99.90;;;;;;4935175;29;20472;-71
2021/07/22 09:12:41;;;;;;;5.90;5.53;;;22.20;99.90;;;;;;4934597;29;20872;-71
2021/07/22 09:15:09;;;;;;;6.27;5.77;;;22.10;99.90;;;;;;4934437;29;20503;-69
2021/07/22 09:17:36;;;;;;;8.07;6.73;;;22.20;99.90;;;;;;4934539;29;20469;-69
2021/07/22 09:20:03;;;;;;;6.97;6.40;;;22.40;99.90;;;;;;4934098;29;20817;-70
2021/07/22 09:22:36;;;;;;;6.80;6.20;;;22.50;99.90;;;;;;4933922;29;20663;-70
2021/07/22 09:25:04;;;;;;;6.53;6.03;;;22.70;99.90;;;;;;4934259;29;20856;-71
2021/07/22 09:27:38;;;;;;;6.10;5.70;;;22.90;99.90;;;;;;4934326;29;20500;-71
2021/07/22 09:30:07;;;;;;;6.47;6.10;;;22.90;99.90;;;;;;4934131;29;20611;-69
2021/07/22 09:32:34;;;;;;;7.03;6.43;;;23.00;99.90;;;;;;4934196;29;20518;-69
2021/07/22 09:35:12;;;;;;;6.13;5.73;;;23.10;99.90;;;;;;4933845;29;20465;-69
2021/07/22 09:37:42;;;;;;;7.47;6.60;;;23.20;99.90;;;;;;4934553;29;20472;-68
2021/07/22 09:40:10;;;;;;;6.50;6.10;;;23.30;99.90;;;;;;4934100;29;20450;-69
2021/07/22 09:42:41;;;;;;;6.80;6.20;;;23.40;99.90;;;;;;4934157;29;20496;-69
2021/07/22 09:45:15;;;;;;;6.10;5.80;;;23.40;99.90;;;;;;4922631;29;20553;-70
2021/07/22 09:47:42;;;;;;;6.37;5.87;;;23.40;99.90;;;;;;4919826;29;20533;-69
2021/07/22 09:50:12;;;;;;;6.53;6.10;;;23.40;99.90;;;;;;4918381;29;20959;-69
2021/07/22 09:52:40;;;;;;;6.20;5.80;;;23.50;99.90;;;;;;4918794;29;20916;-69
2021/07/22 09:55:25;;;;;;;7.37;6.87;;;23.60;99.90;;;;;;4919030;29;20470;-69
2021/07/22 09:57:55;;;;;;;6.60;6.20;;;23.40;99.90;;;;;;4918842;29;20946;-69
2021/07/22 10:00:23;;;;;;;6.40;5.90;;;23.60;99.90;;;;;;4918285;29;20553;-69
2021/07/22 10:02:52;;;;;;;6.67;6.17;;;23.60;99.90;;;;;;4928648;29;21001;-67
2021/07/22 10:05:22;;;;;;;8.03;7.17;;;23.60;99.90;;;;;;4937717;29;20560;-68
2021/07/22 10:07:52;;;;;;;6.40;5.90;;;23.50;99.90;;;;;;4936896;29;20770;-68
2021/07/22 10:10:20;;;;;;;6.50;6.10;;;23.40;99.90;;;;;;4937668;29;20487;-68
2021/07/22 10:12:52;;;;;;;6.50;6.10;;;23.40;99.90;;;;;;4936686;29;20986;-72
2021/07/22 10:15:20;;;;;;;6.20;5.80;;;23.00;99.90;;;;;;4923739;29;20885;-71
2021/07/22 10:17:48;;;;;;;6.77;5.87;;;22.90;99.90;;;;;;4918651;29;20485;-72
2021/07/22 10:20:16;;;;;;;6.90;6.50;;;22.80;99.90;;;;;;4928318;29;20553;-73
2021/07/22 10:22:44;;;;;;;5.70;5.40;;;22.90;99.90;;;;;;4937211;29;20611;-72
2021/07/22 10:25:15;;;;;;;7.10;6.50;;;22.80;99.90;;;;;;4937204;29;20504;-73
2021/07/22 10:27:43;;;;;;;6.10;5.70;;;22.80;99.90;;;;;;4937251;29;20465;-73
2021/07/22 10:30:14;;;;;;;6.40;5.73;;;22.90;99.90;;;;;;4936821;29;20774;-72
2021/07/22 10:32:47;;;;;;;5.83;5.40;;;22.80;99.90;;;;;;4937164;29;20465;-70
2021/07/22 10:35:20;;;;;;;6.30;5.73;;;23.00;99.90;;;;;;4920220;29;20493;-73
2021/07/22 10:38:06;;;;;;;5.40;5.10;;;23.20;99.90;;;;;;4937098;29;20466;-73
2021/07/22 10:40:51;;;;;;;5.90;5.60;;;23.20;99.90;;;;;;4937052;29;20552;-72
2021/07/22 10:43:46;;;;;;;5.47;4.90;;;23.50;99.90;;;;;;4936815;29;20493;-71
2021/07/22 10:46:14;;;;;;;7.10;6.60;;;23.60;99.90;;;;;;4936543;29;20465;-72
2021/07/22 10:48:42;;;;;;;7.77;7.00;;;23.50;99.90;;;;;;4936596;29;20844;-72
2021/07/22 10:51:10;;;;;;;6.40;5.90;;;23.30;99.90;;;;;;4936460;29;20501;-72
2021/07/22 10:53:42;;;;;;;7.10;6.50;;;22.90;99.90;;;;;;4936576;29;20493;-72
2021/07/22 10:56:11;;;;;;;7.17;6.47;;;22.80;99.90;;;;;;4929666;29;20864;-67
2021/07/22 10:58:55;;;;;;;6.73;6.00;;;23.00;99.90;;;;;;4936735;29;20536;-68
2021/07/22 11:01:51;;;;;;;6.40;5.90;;;23.20;99.90;;;;;;4936639;29;20490;-68
2021/07/22 11:04:42;;;;;;;5.97;5.57;;;23.30;99.90;;;;;;4936164;29;20471;-68
2021/07/22 11:07:26;;;;;;;7.00;6.50;;;22.90;99.90;;;;;;4936327;29;20517;-69
2021/07/22 11:09:56;;;;;;;6.30;5.80;;;22.60;99.90;;;;;;4936535;29;20824;-67
2021/07/22 11:12:45;;;;;;;6.13;5.63;;;22.40;99.90;;;;;;4935666;29;20482;-68
2021/07/22 11:15:16;;;;;;;7.10;6.45;;;22.20;99.90;;;;;;4934657;29;20954;-68
2021/07/22 11:17:44;;;;;;;6.10;5.73;;;22.20;99.90;;;;;;4935382;29;20210;-68
2021/07/22 11:20:45;;;;;;;7.43;6.70;;;22.00;99.90;;;;;;4935602;29;20474;-67
2021/07/22 11:23:14;;;;;;;7.60;5.93;;;21.90;99.90;;;;;;4935294;29;20497;-67
2021/07/22 11:25:46;;;;;;;7.03;5.80;;;22.00;99.90;;;;;;4935627;29;20475;-67
2021/07/22 11:28:23;;;;;;;5.50;5.20;;;22.00;99.90;;;;;;4935580;29;20470;-70
2021/07/22 11:31:00;;;;;;;6.37;6.00;;;22.10;99.90;;;;;;4935264;29;20564;-69
2021/07/22 11:33:30;;;;;;;7.77;5.90;;;22.30;99.90;;;;;;4935432;29;20473;-69
2021/07/22 11:35:57;;;;;;;5.70;5.30;;;22.50;99.90;;;;;;4935850;29;20497;-68
2021/07/22 11:38:24;;;;;;;6.27;5.77;;;22.60;99.90;;;;;;4935567;29;20473;-69
2021/07/22 11:40:51;;;;;;;6.53;5.93;;;22.80;99.90;;;;;;4935562;29;20493;-69
2021/07/22 11:43:33;;;;;;;7.00;6.50;;;22.80;99.90;;;;;;4935218;29;21000;-69
2021/07/22 11:46:00;;;;;;;5.43;5.03;;;22.80;99.90;;;;;;4916325;29;20467;-69
2021/07/22 11:48:27;;;;;;;5.83;5.40;;;22.90;99.90;;;;;;4916100;29;20466;-68
2021/07/22 11:51:02;;;;;;;5.53;5.17;;;23.00;99.90;;;;;;4916489;29;20487;-69
2021/07/22 11:53:29;;;;;;;5.53;5.03;;;23.00;99.90;;;;;;4916240;29;20561;-68
2021/07/22 11:55:57;;;;;;;6.10;5.60;;;23.10;99.90;;;;;;4916525;29;20462;-68
2021/07/22 11:58:25;;;;;;;6.00;5.33;;;23.20;99.90;;;;;;4916493;29;20916;-69
2021/07/22 12:00:55;;;;;;;5.30;4.93;;;23.40;99.90;;;;;;4915895;29;20502;-67
2021/07/22 12:03:25;;;;;;;5.10;4.60;;;23.50;99.90;;;;;;4930558;29;20489;-69
2021/07/22 12:05:51;;;;;;;6.30;5.60;;;23.70;99.90;;;;;;4935162;29;20470;-72
2021/07/22 12:08:20;;;;;;;5.60;5.30;;;23.60;99.90;;;;;;4935284;29;20465;-72
2021/07/22 12:10:47;;;;;;;5.87;5.50;;;23.40;99.90;;;;;;4935674;29;20513;-72
2021/07/22 12:13:14;;;;;;;6.23;5.63;;;23.40;99.90;;;;;;4935754;29;20504;-73
2021/07/22 12:15:43;;;;;;;5.90;5.43;;;23.30;99.90;;;;;;4919190;29;20467;-73
2021/07/22 12:18:13;;;;;;;5.60;5.13;;;23.20;99.90;;;;;;4916237;29;20466;-73
2021/07/22 12:20:40;;;;;;;5.53;5.13;;;23.20;99.90;;;;;;4918013;29;20498;-74
2021/07/22 12:23:31;;;;;;;6.37;5.23;;;23.30;99.90;;;;;;4935541;29;20852;-74
2021/07/22 12:25:59;;;;;;;5.80;5.40;;;23.40;99.90;;;;;;4936399;29;20462;-73
2021/07/22 12:28:26;;;;;;;4.97;4.67;;;23.40;99.90;;;;;;4935775;29;21013;-73
2021/07/22 12:30:53;;;;;;;5.20;4.90;;;23.30;99.90;;;;;;4936278;29;20490;-73
2021/07/22 12:33:25;;;;;;;5.07;4.67;;;23.30;99.90;;;;;;4936091;29;20779;-71
2021/07/22 12:35:52;;;;;;;5.40;5.00;;;23.50;99.90;;;;;;4935138;29;20549;-72
2021/07/22 12:38:27;;;;;;;4.83;4.53;;;23.50;99.90;;;;;;4934937;29;20469;-72
2021/07/22 12:41:07;;;;;;;4.67;4.37;;;23.50;99.90;;;;;;4934991;29;20631;-72
2021/07/22 12:43:49;;;;;;;4.87;4.63;;;23.40;99.90;;;;;;4935315;29;20548;-72
2021/07/22 12:46:18;;;;;;;6.00;4.80;;;23.40;99.90;;;;;;4934482;29;20770;-72
2021/07/22 12:48:48;;;;;;;4.87;4.57;;;23.60;99.90;;;;;;4934032;29;20537;-73
2021/07/22 12:51:17;;;;;;;4.83;4.20;;;23.70;99.90;;;;;;4934268;29;20500;-72
2021/07/22 12:53:44;;;;;;;6.13;4.53;;;23.60;99.90;;;;;;4934042;29;20469;-72
2021/07/22 12:56:11;;;;;;;4.93;4.63;;;23.70;99.90;;;;;;4934165;29;20807;-72
2021/07/22 12:58:42;;;;;;;4.80;4.20;;;23.70;99.90;;;;;;4934602;29;20470;-70
2021/07/22 13:01:11;;;;;;;4.23;3.83;;;23.60;99.90;;;;;;4933451;29;20521;-71
2021/07/22 13:03:39;;;;;;;4.83;4.63;;;23.50;99.90;;;;;;4931693;29;20493;-70
2021/07/22 13:06:08;;;;;;;4.53;4.33;;;23.60;99.90;;;;;;4927895;29;21021;-72
2021/07/22 13:08:35;;;;;;;5.13;4.67;;;23.60;99.90;;;;;;4934216;29;20859;-73
2021/07/22 13:11:02;;;;;;;5.03;4.83;;;23.50;99.90;;;;;;4933708;29;20489;-68
2021/07/22 13:13:29;;;;;;;5.27;4.90;;;23.60;99.90;;;;;;4933606;29;20461;-69
2021/07/22 13:15:57;;;;;;;4.97;4.67;;;23.50;99.90;;;;;;4933804;29;20829;-67
2021/07/22 13:18:24;;;;;;;5.07;4.60;;;23.50;99.90;;;;;;4932984;29;20466;-69
2021/07/22 13:20:51;;;;;;;5.00;4.70;;;23.60;99.90;;;;;;4933583;29;20477;-67
2021/07/22 13:23:19;;;;;;;4.70;4.30;;;23.70;99.90;;;;;;4934240;29;20493;-72
2021/07/22 13:25:46;;;;;;;5.87;5.37;;;23.70;99.90;;;;;;4934288;29;20512;-72
2021/07/22 13:28:13;;;;;;;5.43;5.00;;;23.60;99.90;;;;;;4934758;29;20577;-72
2021/07/22 13:30:39;;;;;;;5.53;5.00;;;23.50;99.90;;;;;;4934121;29;20832;-71
2021/07/22 13:33:07;;;;;;;5.30;5.00;;;23.40;99.90;;;;;;4933491;29;20496;-72
2021/07/22 13:35:34;;;;;;;4.90;4.47;;;23.50;99.90;;;;;;4934302;29;20529;-72
2021/07/22 13:38:02;;;;;;;4.50;4.20;;;23.60;99.90;;;;;;4934557;29;20469;-72
2021/07/22 13:40:30;;;;;;;4.90;4.57;;;23.60;99.90;;;;;;4934272;29;20599;-72
2021/07/22 13:43:00;;;;;;;4.87;4.67;;;23.80;99.90;;;;;;4937868;29;21013;-72
2021/07/22 13:45:28;;;;;;;4.10;3.90;;;23.80;99.90;;;;;;4925733;29;20502;-72
2021/07/22 13:47:54;;;;;;;4.60;4.40;;;23.90;99.90;;;;;;4937346;29;20476;-71
2021/07/22 13:50:21;;;;;;;5.13;4.83;;;23.90;99.90;;;;;;4934378;29;20548;-73
2021/07/22 13:52:48;;;;;;;4.60;4.27;;;23.70;99.90;;;;;;4933641;29;20469;-72
2021/07/22 13:55:14;;;;;;;4.30;4.10;;;23.90;99.90;;;;;;4933808;29;20473;-72
2021/07/22 13:57:42;;;;;;;4.30;4.00;;;24.00;99.90;;;;;;4933526;29;20827;-73
2021/07/22 14:00:11;;;;;;;5.33;4.93;;;24.10;99.90;;;;;;4933180;29;20548;-73
2021/07/22 14:02:38;;;;;;;4.67;4.47;;;24.20;99.90;;;;;;4933104;29;20536;-72
2021/07/22 14:05:06;;;;;;;4.80;4.40;;;24.10;99.90;;;;;;4933521;29;20501;-72
2021/07/22 14:07:33;;;;;;;5.30;4.90;;;24.20;99.90;;;;;;4933819;29;20465;-73
2021/07/22 14:09:59;;;;;;;4.10;3.90;;;24.20;99.90;;;;;;4933510;29;20465;-71
2021/07/22 14:12:26;;;;;;;5.23;4.93;;;24.00;99.90;;;;;;4933080;29;20493;-73
2021/07/22 14:14:54;;;;;;;4.87;4.50;;;23.90;99.90;;;;;;4932961;29;20477;-72
2021/07/22 14:17:21;;;;;;;4.80;4.43;;;23.80;99.90;;;;;;4933514;29;20469;-72
2021/07/22 14:19:48;;;;;;;4.80;4.50;;;24.00;99.90;;;;;;4933623;29;20476;-73
2021/07/22 14:22:14;;;;;;;4.73;4.47;;;24.20;99.90;;;;;;4933953;29;20563;-70
2021/07/22 14:24:41;;;;;;;4.77;4.47;;;24.20;99.90;;;;;;4933933;29;20585;-72
2021/07/22 14:27:08;;;;;;;4.83;4.50;;;24.20;99.90;;;;;;4933590;29;20470;-71
2021/07/22 14:29:34;;;;;;;5.17;4.87;;;24.10;99.90;;;;;;4933761;29;20485;-73
2021/07/22 14:32:03;;;;;;;5.00;4.70;;;24.00;99.90;;;;;;4936362;29;20489;-71
2021/07/22 14:34:30;;;;;;;5.53;5.27;;;23.90;99.90;;;;;;4936248;29;20461;-72
2021/07/22 14:36:57;;;;;;;5.27;4.97;;;23.80;99.90;;;;;;4936988;29;20777;-71
2021/07/22 14:39:24;;;;;;;5.00;4.70;;;24.00;99.90;;;;;;4936335;29;20556;-72
2021/07/22 14:41:50;;;;;;;5.17;4.77;;;24.10;99.90;;;;;;4936726;29;20540;-72
2021/07/22 14:44:17;;;;;;;4.30;4.10;;;24.00;99.90;;;;;;4936099;29;20485;-72
2021/07/22 14:46:44;;;;;;;4.00;3.90;;;23.90;99.90;;;;;;4936615;29;20887;-72
2021/07/22 14:49:13;;;;;;;4.53;4.23;;;23.80;99.90;;;;;;4937010;29;20477;-73
2021/07/22 14:51:40;;;;;;;3.97;3.80;;;23.90;99.90;;;;;;4936331;29;20486;-73
2021/07/22 14:54:07;;;;;;;4.13;4.03;;;24.00;99.90;;;;;;4935892;29;20500;-73
2021/07/22 14:56:33;;;;;;;4.50;4.30;;;24.00;99.90;;;;;;4938924;29;20965;-73
2021/07/22 14:59:00;;;;;;;4.30;4.00;;;23.90;99.90;;;;;;4937048;29;20798;-74
2021/07/22 15:01:27;;;;;;;4.57;4.17;;;23.90;99.90;;;;;;4932892;29;20490;-73
2021/07/22 15:03:54;;;;;;;5.00;4.60;;;23.70;99.90;;;;;;4929273;29;20550;-71
2021/07/22 15:06:22;;;;;;;3.80;3.70;;;23.80;99.90;;;;;;4936256;29;20505;-73
2021/07/22 15:08:48;;;;;;;3.73;3.53;;;23.70;99.90;;;;;;4936022;29;20950;-72
2021/07/22 15:11:15;;;;;;;4.03;3.73;;;23.70;99.90;;;;;;4940615;29;20481;-73
2021/07/22 15:13:44;;;;;;;4.00;3.90;;;23.80;99.90;;;;;;4941141;29;21039;-72
2021/07/22 15:16:10;;;;;;;4.07;3.97;;;23.80;99.90;;;;;;4926626;29;20476;-68
2021/07/22 15:18:37;;;;;;;3.60;3.47;;;23.90;99.90;;;;;;4935706;29;20466;-68
2021/07/22 15:21:04;;;;;;;4.77;4.30;;;24.00;99.90;;;;;;4937033;29;20477;-68
2021/07/22 15:23:32;;;;;;;4.00;3.80;;;24.30;99.90;;;;;;4935331;29;20544;-68
2021/07/22 15:25:59;;;;;;;3.90;3.70;;;24.40;99.90;;;;;;4936697;29;20477;-69
2021/07/22 15:28:26;;;;;;;3.50;3.33;;;24.60;99.90;;;;;;4953571;28;20485;-68
2021/07/22 15:30:52;;;;;;;3.97;3.77;;;24.60;99.90;;;;;;4934803;29;20489;-68
2021/07/22 15:33:19;;;;;;;3.87;3.77;;;24.30;99.90;;;;;;4926777;29;20961;-68
2021/07/22 15:35:46;;;;;;;4.23;3.43;;;24.10;99.90;;;;;;4944044;29;21002;-68
2021/07/22 15:38:12;;;;;;;3.53;3.30;;;24.00;99.90;;;;;;4935820;29;20555;-68
2021/07/22 15:40:40;;;;;;;3.60;3.47;;;23.80;99.90;;;;;;4935415;29;20989;-69
2021/07/22 15:43:07;;;;;;;4.03;3.87;;;23.70;99.90;;;;;;4932762;29;20536;-68
2021/07/22 15:45:34;;;;;;;4.00;3.90;;;23.70;99.90;;;;;;4916113;29;20475;-68
2021/07/22 15:48:01;;;;;;;3.90;3.67;;;23.70;99.90;;;;;;4923607;29;20522;-68
2021/07/22 15:50:27;;;;;;;3.87;3.77;;;23.60;99.90;;;;;;4922137;29;20544;-68
2021/07/22 15:52:54;;;;;;;4.93;4.63;;;23.50;99.90;;;;;;4934981;29;20472;-68
2021/07/22 15:55:21;;;;;;;3.77;3.57;;;23.40;99.90;;;;;;4934837;29;20495;-68
2021/07/22 15:57:49;;;;;;;3.63;3.53;;;23.40;99.90;;;;;;4932383;29;20473;-67
2021/07/22 16:00:17;;;;;;;3.77;3.67;;;23.40;99.90;;;;;;4935549;29;20846;-70
2021/07/22 16:02:44;;;;;;;3.90;3.70;;;23.70;99.90;;;;;;4938197;29;20469;-66
2021/07/22 16:05:11;;;;;;;3.80;3.57;;;24.00;99.90;;;;;;4936212;29;20488;-67
2021/07/22 16:07:38;;;;;;;6.60;4.30;;;24.10;99.90;;;;;;4951424;28;20552;-67
2021/07/22 16:10:06;;;;;;;3.97;3.67;;;24.10;99.90;;;;;;4937228;28;20462;-70
2021/07/22 16:12:32;;;;;;;3.77;3.60;;;24.00;99.90;;;;;;4950177;29;20465;-67
2021/07/22 16:15:00;;;;;;;4.57;4.27;;;23.90;99.90;;;;;;4935999;29;20469;-67
2021/07/22 16:17:27;;;;;;;4.90;4.10;;;23.80;99.90;;;;;;4921928;29;20962;-67
2021/07/22 16:19:54;;;;;;;3.90;3.73;;;23.90;99.90;;;;;;4929381;29;20520;-72
2021/07/22 16:22:21;;;;;;;4.00;3.90;;;23.90;99.90;;;;;;4923120;29;20526;-72
2021/07/22 16:24:48;;;;;;;3.90;3.70;;;23.90;99.90;;;;;;4939860;29;20523;-72
2021/07/22 16:27:14;;;;;;;4.30;3.90;;;24.00;99.90;;;;;;4946389;29;20473;-70
2021/07/22 16:29:41;;;;;;;6.03;5.73;;;24.10;99.90;;;;;;4938273;29;20519;-72
2021/07/22 16:32:10;;;;;;;3.80;3.60;;;24.20;99.90;;;;;;4940700;29;20485;-70
2021/07/22 16:34:37;;;;;;;4.50;4.20;;;24.20;99.90;;;;;;4937993;29;20462;-71
2021/07/22 16:37:04;;;;;;;3.47;3.37;;;24.20;99.90;;;;;;4934637;29;20843;-70
2021/07/22 16:39:31;;;;;;;4.47;4.10;;;24.20;99.90;;;;;;4938112;29;20464;-71
2021/07/22 16:41:57;;;;;;;3.40;3.33;;;24.30;99.90;;;;;;4940685;29;20576;-70
2021/07/22 16:44:24;;;;;;;4.10;3.90;;;24.40;99.90;;;;;;4934689;29;20538;-71
2021/07/22 16:46:52;;;;;;;3.80;3.50;;;24.40;99.90;;;;;;4934462;29;20830;-70
2021/07/22 16:49:20;;;;;;;3.83;3.73;;;24.40;99.90;;;;;;4951546;29;20464;-70
2021/07/22 16:51:47;;;;;;;3.57;3.30;;;24.40;99.90;;;;;;4940217;29;20481;-71